DAL292 KJFK-KBOS
Flight info
| Callsign | DAL292 |
|---|---|
| Flight time | 0h 41m |
| Altitude | 21000 |
| Route | MERIT ROBUC3 |
| Aircraft | B738/M-SDE2E3FGHIRWXY/LB1 |
Departure
| Time | 2026-05-09 11:46 |
|---|---|
| Airport | John F. Kennedy International Airport (KJFK) |
Arrival
| Time | 2026-05-09 12:27 |
|---|---|
| Airport | Boston Logan International Airport (KBOS) |
| Time | Latitude | Longitude | Altitude | Speed | Heading |
|---|---|---|---|---|---|
| 2026-05-09 11:16 | 40.63903 | -73.78042 | 22 ft | 0 kts | 263° |
| 2026-05-09 11:34 | 40.63904 | -73.78036 | 22 ft | 4 kts | 263° |
| 2026-05-09 11:34 | 40.63907 | -73.78001 | 22 ft | 4 kts | 263° |
| 2026-05-09 11:35 | 40.63910 | -73.77973 | 22 ft | 4 kts | 253° |
| 2026-05-09 11:35 | 40.63923 | -73.77947 | 25 ft | 4 kts | 202° |
| 2026-05-09 11:35 | 40.63944 | -73.77942 | 26 ft | 3 kts | 173° |
| 2026-05-09 11:35 | 40.63929 | -73.77940 | 25 ft | 4 kts | 173° |
| 2026-05-09 11:36 | 40.63902 | -73.77935 | 24 ft | 4 kts | 173° |
| 2026-05-09 11:36 | 40.63875 | -73.77931 | 22 ft | 4 kts | 173° |
| 2026-05-09 11:36 | 40.63848 | -73.77927 | 22 ft | 4 kts | 173° |
| 2026-05-09 11:36 | 40.63821 | -73.77923 | 22 ft | 4 kts | 173° |
| 2026-05-09 11:37 | 40.63806 | -73.77920 | 22 ft | 1 kts | 173° |
| 2026-05-09 11:38 | 40.63803 | -73.77920 | 22 ft | 3 kts | 173° |
| 2026-05-09 11:39 | 40.63769 | -73.77914 | 22 ft | 6 kts | 173° |
| 2026-05-09 11:39 | 40.63732 | -73.77908 | 22 ft | 5 kts | 173° |
| 2026-05-09 11:39 | 40.63695 | -73.77903 | 22 ft | 5 kts | 173° |
| 2026-05-09 11:40 | 40.63624 | -73.77892 | 22 ft | 4 kts | 172° |
| 2026-05-09 11:40 | 40.63605 | -73.77886 | 24 ft | 1 kts | 161° |
| 2026-05-09 11:40 | 40.63598 | -73.77881 | 23 ft | 1 kts | 154° |
| 2026-05-09 11:40 | 40.63560 | -73.77837 | 21 ft | 10 kts | 126° |
| 2026-05-09 11:41 | 40.63521 | -73.77748 | 21 ft | 11 kts | 111° |
| 2026-05-09 11:41 | 40.63562 | -73.77665 | 20 ft | 18 kts | 31° |
| 2026-05-09 11:41 | 40.63696 | -73.77560 | 18 ft | 23 kts | 30° |
| 2026-05-09 11:41 | 40.63836 | -73.77451 | 18 ft | 23 kts | 31° |
| 2026-05-09 11:42 | 40.63971 | -73.77346 | 20 ft | 22 kts | 31° |
| 2026-05-09 11:42 | 40.64101 | -73.77244 | 24 ft | 22 kts | 31° |
| 2026-05-09 11:42 | 40.64228 | -73.77144 | 22 ft | 21 kts | 31° |
| 2026-05-09 11:42 | 40.64351 | -73.77047 | 24 ft | 20 kts | 29° |
| 2026-05-09 11:43 | 40.64484 | -73.76992 | 18 ft | 20 kts | 14° |
| 2026-05-09 11:43 | 40.64604 | -73.76912 | 18 ft | 19 kts | 31° |
| 2026-05-09 11:43 | 40.64719 | -73.76822 | 17 ft | 19 kts | 31° |
| 2026-05-09 11:43 | 40.64831 | -73.76735 | 21 ft | 18 kts | 31° |
| 2026-05-09 11:44 | 40.64939 | -73.76650 | 20 ft | 18 kts | 31° |
| 2026-05-09 11:44 | 40.65044 | -73.76569 | 20 ft | 17 kts | 30° |
| 2026-05-09 11:44 | 40.65103 | -73.76496 | 21 ft | 7 kts | 89° |
| 2026-05-09 11:44 | 40.65089 | -73.76451 | 23 ft | 3 kts | 122° |
| 2026-05-09 11:45 | 40.65073 | -73.76417 | 22 ft | 9 kts | 122° |
| 2026-05-09 11:45 | 40.65018 | -73.76361 | 23 ft | 12 kts | 197° |
| 2026-05-09 11:45 | 40.64787 | -73.76538 | 21 ft | 77 kts | 211° |
| 2026-05-09 11:45 | 40.64099 | -73.77078 | 49 ft | 146 kts | 210° |
| 2026-05-09 11:46 | 40.63201 | -73.77830 | 757 ft | 155 kts | 211° |
| 2026-05-09 11:46 | 40.62348 | -73.78528 | 1906 ft | 146 kts | 212° |
| 2026-05-09 11:46 | 40.61528 | -73.79152 | 3049 ft | 129 kts | 214° |
| 2026-05-09 11:46 | 40.60707 | -73.79759 | 3822 ft | 138 kts | 215° |
| 2026-05-09 11:47 | 40.59831 | -73.80410 | 4562 ft | 153 kts | 212° |
| 2026-05-09 11:47 | 40.58666 | -73.80714 | 4911 ft | 197 kts | 181° |
| 2026-05-09 11:47 | 40.57268 | -73.80030 | 5176 ft | 239 kts | 149° |
| 2026-05-09 11:47 | 40.56245 | -73.78190 | 5842 ft | 262 kts | 116° |
| 2026-05-09 11:48 | 40.55992 | -73.75697 | 6359 ft | 295 kts | 86° |
| 2026-05-09 11:48 | 40.56700 | -73.73109 | 7149 ft | 310 kts | 59° |
| 2026-05-09 11:48 | 40.58079 | -73.70893 | 8063 ft | 315 kts | 47° |
| 2026-05-09 11:48 | 40.59550 | -73.68825 | 9419 ft | 300 kts | 45° |
| 2026-05-09 11:49 | 40.61139 | -73.67039 | 10330 ft | 307 kts | 28° |
| 2026-05-09 11:49 | 40.63085 | -73.65647 | 10618 ft | 332 kts | 22° |
| 2026-05-09 11:49 | 40.65249 | -73.64284 | 10878 ft | 355 kts | 21° |
| 2026-05-09 11:49 | 40.67516 | -73.62868 | 11499 ft | 364 kts | 21° |
| 2026-05-09 11:50 | 40.69802 | -73.61405 | 12313 ft | 367 kts | 22° |
| 2026-05-09 11:50 | 40.72091 | -73.59897 | 13173 ft | 368 kts | 22° |
| 2026-05-09 11:50 | 40.74384 | -73.58354 | 13976 ft | 371 kts | 22° |
| 2026-05-09 11:50 | 40.76693 | -73.56779 | 14631 ft | 376 kts | 22° |
| 2026-05-09 11:51 | 40.78999 | -73.55193 | 15247 ft | 381 kts | 22° |
| 2026-05-09 11:51 | 40.81395 | -73.53538 | 15939 ft | 386 kts | 22° |
| 2026-05-09 11:51 | 40.83785 | -73.51881 | 16589 ft | 391 kts | 22° |
| 2026-05-09 11:51 | 40.86206 | -73.50199 | 17222 ft | 395 kts | 21° |
| 2026-05-09 11:52 | 40.88656 | -73.48495 | 17846 ft | 401 kts | 21° |
| 2026-05-09 11:52 | 40.91134 | -73.46770 | 18442 ft | 406 kts | 21° |
| 2026-05-09 11:52 | 40.93642 | -73.45021 | 19018 ft | 409 kts | 21° |
| 2026-05-09 11:52 | 40.96167 | -73.43258 | 19607 ft | 411 kts | 20° |
| 2026-05-09 11:53 | 40.98707 | -73.41484 | 20191 ft | 414 kts | 20° |
| 2026-05-09 11:53 | 41.01255 | -73.39702 | 20822 ft | 415 kts | 20° |
| 2026-05-09 11:53 | 41.03787 | -73.37930 | 20975 ft | 415 kts | 20° |
| 2026-05-09 11:53 | 41.06324 | -73.36150 | 20991 ft | 412 kts | 20° |
| 2026-05-09 11:54 | 41.08867 | -73.34367 | 21001 ft | 413 kts | 20° |
| 2026-05-09 11:54 | 41.11415 | -73.32581 | 21005 ft | 414 kts | 20° |
| 2026-05-09 11:54 | 41.13965 | -73.30792 | 21006 ft | 414 kts | 20° |
| 2026-05-09 11:54 | 41.16513 | -73.29003 | 21001 ft | 414 kts | 19° |
| 2026-05-09 11:55 | 41.19067 | -73.27207 | 21022 ft | 414 kts | 19° |
| 2026-05-09 11:56 | 41.31795 | -73.18234 | 21014 ft | 418 kts | 19° |
| 2026-05-09 11:56 | 41.34411 | -73.16378 | 21033 ft | 437 kts | 22° |
| 2026-05-09 11:56 | 41.36852 | -73.13735 | 21033 ft | 471 kts | 45° |
| 2026-05-09 11:57 | 41.38569 | -73.09926 | 21010 ft | 490 kts | 67° |
| 2026-05-09 11:57 | 41.39315 | -73.05490 | 21036 ft | 494 kts | 82° |
| 2026-05-09 11:57 | 41.39765 | -73.00946 | 21009 ft | 495 kts | 83° |
| 2026-05-09 11:57 | 41.40188 | -72.96396 | 20997 ft | 495 kts | 83° |
| 2026-05-09 11:58 | 41.40610 | -72.91899 | 20977 ft | 495 kts | 82° |
| 2026-05-09 11:58 | 41.41056 | -72.87355 | 21003 ft | 494 kts | 82° |
| 2026-05-09 11:58 | 41.41519 | -72.82828 | 20997 ft | 494 kts | 81° |
| 2026-05-09 11:58 | 41.41995 | -72.78289 | 20998 ft | 493 kts | 81° |
| 2026-05-09 11:59 | 41.42476 | -72.73754 | 21016 ft | 493 kts | 81° |
| 2026-05-09 11:59 | 41.42956 | -72.69229 | 21016 ft | 493 kts | 81° |
| 2026-05-09 11:59 | 41.43435 | -72.64702 | 21013 ft | 493 kts | 81° |
| 2026-05-09 11:59 | 41.43910 | -72.60171 | 21008 ft | 494 kts | 81° |
| 2026-05-09 12:00 | 41.44383 | -72.55637 | 21007 ft | 494 kts | 81° |
| 2026-05-09 12:00 | 41.44853 | -72.51101 | 21015 ft | 494 kts | 81° |
| 2026-05-09 12:00 | 41.45321 | -72.46569 | 21028 ft | 494 kts | 81° |
| 2026-05-09 12:00 | 41.45790 | -72.42022 | 21025 ft | 495 kts | 81° |
| 2026-05-09 12:01 | 41.46251 | -72.37521 | 21016 ft | 496 kts | 81° |
| 2026-05-09 12:01 | 41.46715 | -72.32979 | 21015 ft | 495 kts | 81° |
| 2026-05-09 12:01 | 41.47178 | -72.28430 | 21021 ft | 495 kts | 81° |
| 2026-05-09 12:01 | 41.47638 | -72.23888 | 21021 ft | 494 kts | 81° |
| 2026-05-09 12:02 | 41.48346 | -72.19416 | 21004 ft | 491 kts | 67° |
| 2026-05-09 12:02 | 41.49804 | -72.15343 | 21048 ft | 486 kts | 58° |
| 2026-05-09 12:02 | 41.51378 | -72.11355 | 21031 ft | 486 kts | 58° |
| 2026-05-09 12:02 | 41.52921 | -72.07332 | 21028 ft | 487 kts | 59° |
| 2026-05-09 12:03 | 41.54419 | -72.03278 | 21026 ft | 487 kts | 60° |
| 2026-05-09 12:03 | 41.55883 | -71.99219 | 21031 ft | 488 kts | 62° |
| 2026-05-09 12:03 | 41.57190 | -71.95037 | 21033 ft | 489 kts | 66° |
| 2026-05-09 12:03 | 41.58417 | -71.90768 | 20667 ft | 490 kts | 66° |
| 2026-05-09 12:04 | 41.59638 | -71.86541 | 20259 ft | 485 kts | 66° |
| 2026-05-09 12:04 | 41.60857 | -71.82380 | 19821 ft | 479 kts | 65° |
| 2026-05-09 12:04 | 41.62074 | -71.78261 | 19363 ft | 475 kts | 65° |
| 2026-05-09 12:04 | 41.63284 | -71.74171 | 18905 ft | 472 kts | 65° |
| 2026-05-09 12:05 | 41.64485 | -71.70106 | 18464 ft | 469 kts | 65° |
| 2026-05-09 12:05 | 41.65678 | -71.66057 | 17954 ft | 466 kts | 65° |
| 2026-05-09 12:05 | 41.66859 | -71.62041 | 17445 ft | 463 kts | 66° |
| 2026-05-09 12:05 | 41.68019 | -71.58079 | 17213 ft | 453 kts | 66° |
| 2026-05-09 12:06 | 41.69164 | -71.54168 | 16773 ft | 450 kts | 66° |
| 2026-05-09 12:06 | 41.70297 | -71.50294 | 16348 ft | 446 kts | 66° |
| 2026-05-09 12:06 | 41.71425 | -71.46431 | 15919 ft | 444 kts | 66° |
| 2026-05-09 12:06 | 41.72544 | -71.42649 | 15474 ft | 441 kts | 64° |
| 2026-05-09 12:07 | 41.73942 | -71.39032 | 15050 ft | 434 kts | 56° |
| 2026-05-09 12:07 | 41.75510 | -71.35602 | 14624 ft | 430 kts | 54° |
| 2026-05-09 12:07 | 41.77057 | -71.32186 | 14193 ft | 428 kts | 56° |
| 2026-05-09 12:07 | 41.78538 | -71.28788 | 13734 ft | 413 kts | 57° |
| 2026-05-09 12:08 | 41.79929 | -71.25516 | 13268 ft | 395 kts | 57° |
| 2026-05-09 12:08 | 41.81258 | -71.22377 | 12871 ft | 379 kts | 57° |
| 2026-05-09 12:08 | 41.82536 | -71.19364 | 12490 ft | 366 kts | 57° |
| 2026-05-09 12:08 | 41.83773 | -71.16453 | 12157 ft | 352 kts | 57° |
| 2026-05-09 12:09 | 41.84956 | -71.13663 | 12007 ft | 335 kts | 57° |
| 2026-05-09 12:09 | 41.86089 | -71.11005 | 11870 ft | 323 kts | 56° |
| 2026-05-09 12:09 | 41.87220 | -71.08389 | 11752 ft | 329 kts | 56° |
| 2026-05-09 12:10 | 41.90757 | -71.00230 | 11304 ft | 337 kts | 56° |
| 2026-05-09 12:10 | 41.91927 | -70.97516 | 11144 ft | 335 kts | 56° |
| 2026-05-09 12:10 | 41.93092 | -70.94809 | 10997 ft | 334 kts | 56° |
| 2026-05-09 12:11 | 41.94252 | -70.92114 | 10850 ft | 332 kts | 57° |
| 2026-05-09 12:11 | 41.95391 | -70.89464 | 10704 ft | 331 kts | 56° |
| 2026-05-09 12:11 | 41.96539 | -70.86790 | 10542 ft | 330 kts | 56° |
| 2026-05-09 12:11 | 41.97681 | -70.84130 | 10399 ft | 329 kts | 56° |
| 2026-05-09 12:12 | 41.98822 | -70.81467 | 10261 ft | 328 kts | 56° |
| 2026-05-09 12:12 | 41.99959 | -70.78815 | 10124 ft | 328 kts | 57° |
| 2026-05-09 12:12 | 42.01114 | -70.76168 | 9961 ft | 328 kts | 54° |
| 2026-05-09 12:12 | 42.02533 | -70.73756 | 9640 ft | 330 kts | 44° |
| 2026-05-09 12:13 | 42.04115 | -70.71508 | 9315 ft | 331 kts | 42° |
| 2026-05-09 12:13 | 42.05694 | -70.69268 | 8998 ft | 329 kts | 43° |
| 2026-05-09 12:13 | 42.07239 | -70.67009 | 8678 ft | 327 kts | 44° |
| 2026-05-09 12:13 | 42.08760 | -70.64745 | 8371 ft | 325 kts | 45° |
| 2026-05-09 12:14 | 42.10313 | -70.62553 | 8050 ft | 320 kts | 35° |
| 2026-05-09 12:14 | 42.12232 | -70.61190 | 7766 ft | 308 kts | 11° |
| 2026-05-09 12:14 | 42.14290 | -70.60540 | 7503 ft | 301 kts | 6° |
| 2026-05-09 12:14 | 42.16332 | -70.60001 | 7231 ft | 299 kts | 6° |
| 2026-05-09 12:15 | 42.18368 | -70.59470 | 6939 ft | 298 kts | 8° |
| 2026-05-09 12:15 | 42.20394 | -70.58931 | 6653 ft | 295 kts | 8° |
| 2026-05-09 12:15 | 42.22394 | -70.58386 | 6411 ft | 292 kts | 9° |
| 2026-05-09 12:15 | 42.24374 | -70.57840 | 6148 ft | 289 kts | 9° |
| 2026-05-09 12:16 | 42.26296 | -70.57304 | 5885 ft | 281 kts | 9° |
| 2026-05-09 12:16 | 42.28159 | -70.56783 | 5665 ft | 267 kts | 9° |
| 2026-05-09 12:16 | 42.29948 | -70.56282 | 5420 ft | 258 kts | 9° |
| 2026-05-09 12:16 | 42.31703 | -70.55932 | 5163 ft | 252 kts | 355° |
| 2026-05-09 12:17 | 42.33332 | -70.56642 | 4910 ft | 245 kts | 326° |
| 2026-05-09 12:17 | 42.34640 | -70.58070 | 4659 ft | 241 kts | 314° |
| 2026-05-09 12:17 | 42.35840 | -70.59648 | 4398 ft | 240 kts | 313° |
| 2026-05-09 12:17 | 42.37025 | -70.61219 | 4128 ft | 238 kts | 314° |
| 2026-05-09 12:18 | 42.38215 | -70.62774 | 3873 ft | 237 kts | 314° |
| 2026-05-09 12:18 | 42.39402 | -70.64324 | 3615 ft | 237 kts | 314° |
| 2026-05-09 12:18 | 42.40584 | -70.65867 | 3352 ft | 234 kts | 314° |
| 2026-05-09 12:18 | 42.41739 | -70.67370 | 3087 ft | 225 kts | 314° |
| 2026-05-09 12:19 | 42.42856 | -70.68820 | 3000 ft | 223 kts | 314° |
| 2026-05-09 12:19 | 42.43977 | -70.70276 | 2982 ft | 222 kts | 314° |
| 2026-05-09 12:19 | 42.45082 | -70.71711 | 2962 ft | 220 kts | 314° |
| 2026-05-09 12:19 | 42.46190 | -70.73158 | 2811 ft | 223 kts | 314° |
| 2026-05-09 12:20 | 42.47311 | -70.74606 | 2851 ft | 219 kts | 314° |
| 2026-05-09 12:20 | 42.48410 | -70.76012 | 2908 ft | 218 kts | 314° |
| 2026-05-09 12:20 | 42.49487 | -70.77412 | 2904 ft | 216 kts | 313° |
| 2026-05-09 12:20 | 42.50215 | -70.78369 | 2929 ft | 218 kts | 313° |
| 2026-05-09 12:21 | 42.51305 | -70.79809 | 3008 ft | 217 kts | 313° |
| 2026-05-09 12:21 | 42.52379 | -70.81250 | 2992 ft | 218 kts | 311° |
| 2026-05-09 12:21 | 42.53266 | -70.82887 | 3003 ft | 215 kts | 294° |
| 2026-05-09 12:21 | 42.53659 | -70.84827 | 2964 ft | 212 kts | 270° |
| 2026-05-09 12:22 | 42.53566 | -70.86791 | 3011 ft | 206 kts | 261° |
| 2026-05-09 12:22 | 42.53415 | -70.88708 | 2999 ft | 200 kts | 263° |
| 2026-05-09 12:22 | 42.53324 | -70.90537 | 2994 ft | 193 kts | 258° |
| 2026-05-09 12:22 | 42.52710 | -70.92060 | 2872 ft | 191 kts | 220° |
| 2026-05-09 12:23 | 42.51723 | -70.93165 | 2891 ft | 180 kts | 215° |
| 2026-05-09 12:23 | 42.50637 | -70.93914 | 2755 ft | 174 kts | 199° |
| 2026-05-09 12:23 | 42.49486 | -70.94411 | 2588 ft | 172 kts | 198° |
| 2026-05-09 12:23 | 42.48352 | -70.94914 | 2401 ft | 173 kts | 197° |
| 2026-05-09 12:24 | 42.47184 | -70.95402 | 2103 ft | 178 kts | 197° |
| 2026-05-09 12:24 | 42.46004 | -70.95928 | 1852 ft | 178 kts | 198° |
| 2026-05-09 12:24 | 42.44872 | -70.96466 | 1653 ft | 169 kts | 198° |
| 2026-05-09 12:24 | 42.43778 | -70.96983 | 1412 ft | 165 kts | 198° |
| 2026-05-09 12:25 | 42.42694 | -70.97496 | 1129 ft | 165 kts | 199° |
| 2026-05-09 12:25 | 42.41629 | -70.98018 | 932 ft | 158 kts | 200° |
| 2026-05-09 12:25 | 42.40611 | -70.98521 | 755 ft | 155 kts | 198° |
| 2026-05-09 12:25 | 42.39591 | -70.99012 | 530 ft | 153 kts | 199° |
| 2026-05-09 12:26 | 42.38612 | -70.99481 | 288 ft | 146 kts | 198° |
| 2026-05-09 12:26 | 42.37680 | -70.99937 | 117 ft | 138 kts | 198° |
| 2026-05-09 12:26 | 42.36818 | -71.00362 | 28 ft | 123 kts | 196° |
| 2026-05-09 12:26 | 42.36124 | -71.00689 | 28 ft | 84 kts | 199° |
| 2026-05-09 12:27 | 42.35758 | -71.00863 | 26 ft | 24 kts | 200° |
| 2026-05-09 12:27 | 42.35644 | -71.00961 | 27 ft | 16 kts | 248° |
| 2026-05-09 12:27 | 42.35641 | -71.01094 | 24 ft | 12 kts | 284° |
| 2026-05-09 12:27 | 42.35677 | -71.01193 | 26 ft | 12 kts | 303° |
| 2026-05-09 12:28 | 42.35728 | -71.01277 | 27 ft | 11 kts | 302° |
| 2026-05-09 12:28 | 42.35758 | -71.01374 | 26 ft | 11 kts | 290° |
| 2026-05-09 12:28 | 42.35785 | -71.01470 | 27 ft | 11 kts | 289° |
| 2026-05-09 12:28 | 42.35808 | -71.01565 | 26 ft | 10 kts | 288° |
| 2026-05-09 12:29 | 42.35840 | -71.01647 | 25 ft | 10 kts | 331° |
| 2026-05-09 12:29 | 42.35900 | -71.01686 | 26 ft | 10 kts | 296° |
| 2026-05-09 12:29 | 42.35915 | -71.01780 | 24 ft | 12 kts | 285° |
| 2026-05-09 12:29 | 42.35979 | -71.01940 | 27 ft | 21 kts | 308° |
| 2026-05-09 12:30 | 42.36048 | -71.02112 | 24 ft | 20 kts | 298° |
| 2026-05-09 12:30 | 42.36127 | -71.02259 | 24 ft | 18 kts | 335° |
| 2026-05-09 12:30 | 42.36330 | -71.02190 | 26 ft | 5 kts | 38° |
| 2026-05-09 12:31 | 42.36349 | -71.02170 | 27 ft | 2 kts | 38° |
| 2026-05-09 12:31 | 42.36353 | -71.02165 | 26 ft | 0 kts | 38° |